sensor_id;sensor_type;location;lat;lon;timestamp;P1;durP1;ratioP1;P2;durP2;ratioP2
28625;SDS011;18905;42.668;23.364;2023-10-13T00:02:00;29.55;;;11.88;;
28625;SDS011;18905;42.668;23.364;2023-10-13T00:04:28;28.15;;;11.77;;
28625;SDS011;18905;42.668;23.364;2023-10-13T00:06:58;23.25;;;10.98;;
28625;SDS011;18905;42.668;23.364;2023-10-13T00:09:25;29.23;;;11.85;;
28625;SDS011;18905;42.668;23.364;2023-10-13T00:11:54;23.52;;;11.45;;
28625;SDS011;18905;42.668;23.364;2023-10-13T00:14:21;25.77;;;11.32;;
28625;SDS011;18905;42.668;23.364;2023-10-13T00:16:47;17.55;;;10.45;;
28625;SDS011;18905;42.668;23.364;2023-10-13T00:19:28;34.00;;;11.65;;
28625;SDS011;18905;42.668;23.364;2023-10-13T00:22:28;21.77;;;11.13;;
28625;SDS011;18905;42.668;23.364;2023-10-13T00:24:58;23.58;;;10.88;;
28625;SDS011;18905;42.668;23.364;2023-10-13T00:27:28;24.02;;;11.45;;
28625;SDS011;18905;42.668;23.364;2023-10-13T00:30:06;23.00;;;10.98;;
28625;SDS011;18905;42.668;23.364;2023-10-13T00:32:45;28.40;;;11.52;;
28625;SDS011;18905;42.668;23.364;2023-10-13T00:35:20;25.42;;;11.88;;
28625;SDS011;18905;42.668;23.364;2023-10-13T00:38:02;20.98;;;10.93;;
28625;SDS011;18905;42.668;23.364;2023-10-13T00:40:42;23.58;;;11.32;;
28625;SDS011;18905;42.668;23.364;2023-10-13T00:43:09;26.77;;;10.93;;
28625;SDS011;18905;42.668;23.364;2023-10-13T00:48:13;25.33;;;10.70;;
28625;SDS011;18905;42.668;23.364;2023-10-13T00:50:39;23.48;;;11.18;;
28625;SDS011;18905;42.668;23.364;2023-10-13T00:53:06;25.40;;;11.48;;
28625;SDS011;18905;42.668;23.364;2023-10-13T00:55:33;25.58;;;11.38;;
28625;SDS011;18905;42.668;23.364;2023-10-13T00:58:08;22.25;;;11.65;;
28625;SDS011;18905;42.668;23.364;2023-10-13T01:00:37;22.98;;;11.32;;
28625;SDS011;18905;42.668;23.364;2023-10-13T01:03:21;19.00;;;11.13;;
28625;SDS011;18905;42.668;23.364;2023-10-13T01:05:54;24.48;;;11.13;;
28625;SDS011;18905;42.668;23.364;2023-10-13T01:08:32;24.77;;;11.27;;
28625;SDS011;18905;42.668;23.364;2023-10-13T01:11:03;24.98;;;11.18;;
28625;SDS011;18905;42.668;23.364;2023-10-13T01:13:33;23.55;;;10.50;;
28625;SDS011;18905;42.668;23.364;2023-10-13T01:16:02;20.70;;;10.93;;
28625;SDS011;18905;42.668;23.364;2023-10-13T01:18:33;22.58;;;10.35;;
28625;SDS011;18905;42.668;23.364;2023-10-13T01:21:12;22.95;;;11.18;;
28625;SDS011;18905;42.668;23.364;2023-10-13T01:23:40;24.42;;;11.32;;
28625;SDS011;18905;42.668;23.364;2023-10-13T01:26:21;22.15;;;11.65;;
28625;SDS011;18905;42.668;23.364;2023-10-13T01:28:51;22.25;;;11.45;;
28625;SDS011;18905;42.668;23.364;2023-10-13T01:31:19;29.35;;;12.02;;
28625;SDS011;18905;42.668;23.364;2023-10-13T01:34:02;24.65;;;11.50;;
28625;SDS011;18905;42.668;23.364;2023-10-13T01:36:28;25.38;;;11.20;;
28625;SDS011;18905;42.668;23.364;2023-10-13T01:39:00;23.25;;;11.85;;
28625;SDS011;18905;42.668;23.364;2023-10-13T01:41:26;32.70;;;11.77;;
28625;SDS011;18905;42.668;23.364;2023-10-13T01:43:52;25.30;;;10.52;;
28625;SDS011;18905;42.668;23.364;2023-10-13T01:46:22;24.67;;;12.18;;
28625;SDS011;18905;42.668;23.364;2023-10-13T01:48:48;23.98;;;11.60;;
28625;SDS011;18905;42.668;23.364;2023-10-13T01:51:13;26.17;;;11.30;;
28625;SDS011;18905;42.668;23.364;2023-10-13T01:53:39;27.13;;;11.27;;
28625;SDS011;18905;42.668;23.364;2023-10-13T01:56:21;22.20;;;11.55;;
28625;SDS011;18905;42.668;23.364;2023-10-13T01:58:56;24.25;;;11.07;;
28625;SDS011;18905;42.668;23.364;2023-10-13T02:01:22;21.42;;;10.80;;
28625;SDS011;18905;42.668;23.364;2023-10-13T02:03:58;21.65;;;11.02;;
28625;SDS011;18905;42.668;23.364;2023-10-13T02:06:29;17.88;;;10.55;;
28625;SDS011;18905;42.668;23.364;2023-10-13T02:09:05;19.98;;;10.30;;
28625;SDS011;18905;42.668;23.364;2023-10-13T02:11:54;22.88;;;9.40;;
28625;SDS011;18905;42.668;23.364;2023-10-13T02:14:22;19.80;;;10.30;;
28625;SDS011;18905;42.668;23.364;2023-10-13T02:16:50;19.65;;;9.68;;
28625;SDS011;18905;42.668;23.364;2023-10-13T02:19:37;15.77;;;10.20;;
28625;SDS011;18905;42.668;23.364;2023-10-13T02:22:09;20.75;;;10.07;;
28625;SDS011;18905;42.668;23.364;2023-10-13T02:24:36;23.75;;;10.65;;
28625;SDS011;18905;42.668;23.364;2023-10-13T02:27:06;21.98;;;10.02;;
28625;SDS011;18905;42.668;23.364;2023-10-13T02:29:39;20.63;;;10.05;;
28625;SDS011;18905;42.668;23.364;2023-10-13T02:32:06;22.10;;;11.35;;
28625;SDS011;18905;42.668;23.364;2023-10-13T02:34:43;22.70;;;11.15;;
28625;SDS011;18905;42.668;23.364;2023-10-13T02:37:12;22.95;;;11.13;;
28625;SDS011;18905;42.668;23.364;2023-10-13T02:39:41;25.17;;;10.02;;
28625;SDS011;18905;42.668;23.364;2023-10-13T02:42:07;20.08;;;10.00;;
28625;SDS011;18905;42.668;23.364;2023-10-13T02:44:48;20.70;;;9.75;;
28625;SDS011;18905;42.668;23.364;2023-10-13T02:47:16;20.05;;;10.10;;
28625;SDS011;18905;42.668;23.364;2023-10-13T02:49:44;28.80;;;10.57;;
28625;SDS011;18905;42.668;23.364;2023-10-13T02:52:13;23.10;;;10.50;;
28625;SDS011;18905;42.668;23.364;2023-10-13T02:54:39;23.55;;;11.32;;
28625;SDS011;18905;42.668;23.364;2023-10-13T02:57:16;25.60;;;12.13;;
28625;SDS011;18905;42.668;23.364;2023-10-13T02:59:44;24.98;;;10.35;;
28625;SDS011;18905;42.668;23.364;2023-10-13T03:02:14;29.02;;;13.32;;
28625;SDS011;18905;42.668;23.364;2023-10-13T03:05:04;25.27;;;11.77;;
28625;SDS011;18905;42.668;23.364;2023-10-13T03:07:41;24.02;;;10.93;;
28625;SDS011;18905;42.668;23.364;2023-10-13T03:10:10;25.55;;;12.02;;
28625;SDS011;18905;42.668;23.364;2023-10-13T03:12:36;30.23;;;12.93;;
28625;SDS011;18905;42.668;23.364;2023-10-13T03:15:06;27.98;;;13.25;;
28625;SDS011;18905;42.668;23.364;2023-10-13T03:17:58;30.52;;;12.57;;
28625;SDS011;18905;42.668;23.364;2023-10-13T03:20:24;29.70;;;12.98;;
28625;SDS011;18905;42.668;23.364;2023-10-13T03:22:56;25.30;;;12.10;;
28625;SDS011;18905;42.668;23.364;2023-10-13T03:25:22;24.10;;;12.57;;
28625;SDS011;18905;42.668;23.364;2023-10-13T03:27:58;24.33;;;11.30;;
28625;SDS011;18905;42.668;23.364;2023-10-13T03:30:24;28.13;;;12.18;;
28625;SDS011;18905;42.668;23.364;2023-10-13T03:33:04;27.83;;;11.50;;
28625;SDS011;18905;42.668;23.364;2023-10-13T03:35:50;26.02;;;12.18;;
28625;SDS011;18905;42.668;23.364;2023-10-13T03:38:19;27.42;;;12.63;;
28625;SDS011;18905;42.668;23.364;2023-10-13T03:40:46;18.67;;;11.10;;
28625;SDS011;18905;42.668;23.364;2023-10-13T03:43:32;28.25;;;11.95;;
28625;SDS011;18905;42.668;23.364;2023-10-13T03:46:09;22.92;;;11.38;;
28625;SDS011;18905;42.668;23.364;2023-10-13T03:48:35;23.35;;;12.02;;
28625;SDS011;18905;42.668;23.364;2023-10-13T03:51:22;26.00;;;11.48;;
28625;SDS011;18905;42.668;23.364;2023-10-13T03:53:55;32.80;;;13.27;;
28625;SDS011;18905;42.668;23.364;2023-10-13T03:56:25;28.35;;;13.63;;
28625;SDS011;18905;42.668;23.364;2023-10-13T03:58:56;32.20;;;13.05;;
28625;SDS011;18905;42.668;23.364;2023-10-13T04:01:30;54.28;;;11.98;;
28625;SDS011;18905;42.668;23.364;2023-10-13T04:04:00;33.97;;;12.05;;
28625;SDS011;18905;42.668;23.364;2023-10-13T04:06:34;26.08;;;11.90;;
28625;SDS011;18905;42.668;23.364;2023-10-13T04:11:59;29.63;;;12.63;;
28625;SDS011;18905;42.668;23.364;2023-10-13T04:14:29;27.17;;;11.80;;
28625;SDS011;18905;42.668;23.364;2023-10-13T04:17:43;24.10;;;11.75;;
28625;SDS011;18905;42.668;23.364;2023-10-13T04:20:12;27.58;;;12.15;;
28625;SDS011;18905;42.668;23.364;2023-10-13T04:22:38;28.48;;;12.70;;
28625;SDS011;18905;42.668;23.364;2023-10-13T04:25:18;29.42;;;12.27;;
28625;SDS011;18905;42.668;23.364;2023-10-13T04:28:12;25.08;;;11.57;;
28625;SDS011;18905;42.668;23.364;2023-10-13T04:33:22;29.45;;;12.68;;
28625;SDS011;18905;42.668;23.364;2023-10-13T04:36:04;85.03;;;15.27;;
28625;SDS011;18905;42.668;23.364;2023-10-13T04:39:24;168.10;;;25.38;;
28625;SDS011;18905;42.668;23.364;2023-10-13T04:42:00;87.68;;;17.27;;
28625;SDS011;18905;42.668;23.364;2023-10-13T04:44:48;28.75;;;11.77;;
28625;SDS011;18905;42.668;23.364;2023-10-13T04:47:17;28.35;;;12.90;;
28625;SDS011;18905;42.668;23.364;2023-10-13T04:49:48;39.40;;;12.95;;
28625;SDS011;18905;42.668;23.364;2023-10-13T04:53:07;37.50;;;14.55;;
28625;SDS011;18905;42.668;23.364;2023-10-13T04:55:54;40.85;;;17.58;;
28625;SDS011;18905;42.668;23.364;2023-10-13T05:04:40;46.78;;;17.77;;
28625;SDS011;18905;42.668;23.364;2023-10-13T05:07:27;36.40;;;16.40;;
28625;SDS011;18905;42.668;23.364;2023-10-13T05:10:12;39.08;;;17.20;;
28625;SDS011;18905;42.668;23.364;2023-10-13T05:31:25;37.97;;;18.20;;
28625;SDS011;18905;42.668;23.364;2023-10-13T05:34:31;37.83;;;16.17;;
28625;SDS011;18905;42.668;23.364;2023-10-13T05:37:10;34.03;;;14.88;;
28625;SDS011;18905;42.668;23.364;2023-10-13T05:39:55;31.75;;;15.20;;
28625;SDS011;18905;42.668;23.364;2023-10-13T05:42:39;37.22;;;14.95;;
28625;SDS011;18905;42.668;23.364;2023-10-13T05:45:23;27.13;;;14.73;;
28625;SDS011;18905;42.668;23.364;2023-10-13T05:48:02;36.85;;;15.98;;
28625;SDS011;18905;42.668;23.364;2023-10-13T05:50:37;45.92;;;18.65;;
28625;SDS011;18905;42.668;23.364;2023-10-13T05:53:35;41.85;;;15.35;;
28625;SDS011;18905;42.668;23.364;2023-10-13T05:56:20;36.50;;;14.73;;
28625;SDS011;18905;42.668;23.364;2023-10-13T05:59:05;27.70;;;15.15;;
28625;SDS011;18905;42.668;23.364;2023-10-13T06:01:49;33.33;;;15.03;;
28625;SDS011;18905;42.668;23.364;2023-10-13T06:04:33;28.98;;;12.80;;
28625;SDS011;18905;42.668;23.364;2023-10-13T06:07:17;55.03;;;13.90;;
28625;SDS011;18905;42.668;23.364;2023-10-13T06:10:01;208.45;;;22.42;;
28625;SDS011;18905;42.668;23.364;2023-10-13T06:12:45;206.27;;;22.67;;
28625;SDS011;18905;42.668;23.364;2023-10-13T06:15:35;30.05;;;13.20;;
28625;SDS011;18905;42.668;23.364;2023-10-13T06:18:22;166.07;;;22.58;;
28625;SDS011;18905;42.668;23.364;2023-10-13T06:21:06;109.95;;;17.88;;
28625;SDS011;18905;42.668;23.364;2023-10-13T06:23:51;28.15;;;12.00;;
28625;SDS011;18905;42.668;23.364;2023-10-13T06:26:39;42.55;;;12.93;;
28625;SDS011;18905;42.668;23.364;2023-10-13T06:29:23;83.35;;;21.02;;
28625;SDS011;18905;42.668;23.364;2023-10-13T06:31:50;98.22;;;22.35;;
28625;SDS011;18905;42.668;23.364;2023-10-13T06:34:15;27.95;;;12.88;;
28625;SDS011;18905;42.668;23.364;2023-10-13T06:36:46;42.20;;;13.98;;
28625;SDS011;18905;42.668;23.364;2023-10-13T06:39:12;28.08;;;13.43;;
28625;SDS011;18905;42.668;23.364;2023-10-13T06:41:58;49.88;;;15.20;;
28625;SDS011;18905;42.668;23.364;2023-10-13T06:44:24;38.88;;;13.98;;
28625;SDS011;18905;42.668;23.364;2023-10-13T06:46:49;32.20;;;13.10;;
28625;SDS011;18905;42.668;23.364;2023-10-13T06:49:16;30.55;;;13.52;;
28625;SDS011;18905;42.668;23.364;2023-10-13T06:51:43;30.92;;;15.43;;
28625;SDS011;18905;42.668;23.364;2023-10-13T06:54:18;33.08;;;14.63;;
28625;SDS011;18905;42.668;23.364;2023-10-13T06:56:47;30.80;;;14.18;;
28625;SDS011;18905;42.668;23.364;2023-10-13T06:59:17;31.88;;;14.63;;
28625;SDS011;18905;42.668;23.364;2023-10-13T07:01:43;46.50;;;19.10;;
28625;SDS011;18905;42.668;23.364;2023-10-13T07:04:10;27.55;;;14.27;;
28625;SDS011;18905;42.668;23.364;2023-10-13T07:06:40;37.40;;;16.88;;
28625;SDS011;18905;42.668;23.364;2023-10-13T07:09:13;35.20;;;15.38;;
28625;SDS011;18905;42.668;23.364;2023-10-13T07:11:58;36.53;;;15.80;;
28625;SDS011;18905;42.668;23.364;2023-10-13T07:14:26;38.05;;;14.63;;
28625;SDS011;18905;42.668;23.364;2023-10-13T07:17:02;39.25;;;16.30;;
28625;SDS011;18905;42.668;23.364;2023-10-13T07:19:30;33.97;;;14.95;;
28625;SDS011;18905;42.668;23.364;2023-10-13T07:22:00;31.95;;;14.63;;
28625;SDS011;18905;42.668;23.364;2023-10-13T07:24:47;25.52;;;13.55;;
28625;SDS011;18905;42.668;23.364;2023-10-13T07:27:16;50.38;;;16.45;;
28625;SDS011;18905;42.668;23.364;2023-10-13T07:29:53;29.20;;;13.57;;
28625;SDS011;18905;42.668;23.364;2023-10-13T07:32:42;25.15;;;13.45;;
28625;SDS011;18905;42.668;23.364;2023-10-13T07:35:19;36.38;;;13.95;;
28625;SDS011;18905;42.668;23.364;2023-10-13T07:37:49;28.75;;;13.25;;
28625;SDS011;18905;42.668;23.364;2023-10-13T07:40:17;33.90;;;15.82;;
28625;SDS011;18905;42.668;23.364;2023-10-13T07:43:04;25.60;;;13.05;;
28625;SDS011;18905;42.668;23.364;2023-10-13T07:45:35;35.90;;;14.82;;
28625;SDS011;18905;42.668;23.364;2023-10-13T07:48:05;57.92;;;36.38;;
28625;SDS011;18905;42.668;23.364;2023-10-13T07:50:45;29.73;;;15.15;;
28625;SDS011;18905;42.668;23.364;2023-10-13T07:53:36;31.42;;;15.77;;
28625;SDS011;18905;42.668;23.364;2023-10-13T07:56:14;33.47;;;14.15;;
28625;SDS011;18905;42.668;23.364;2023-10-13T07:58:43;27.85;;;14.95;;
28625;SDS011;18905;42.668;23.364;2023-10-13T08:01:25;28.73;;;15.38;;
28625;SDS011;18905;42.668;23.364;2023-10-13T08:03:51;31.73;;;13.15;;
28625;SDS011;18905;42.668;23.364;2023-10-13T08:06:30;31.05;;;13.45;;
28625;SDS011;18905;42.668;23.364;2023-10-13T08:08:56;29.45;;;14.13;;
28625;SDS011;18905;42.668;23.364;2023-10-13T08:11:33;34.17;;;14.32;;
28625;SDS011;18905;42.668;23.364;2023-10-13T08:14:05;26.15;;;14.02;;
28625;SDS011;18905;42.668;23.364;2023-10-13T08:16:42;32.45;;;14.80;;
28625;SDS011;18905;42.668;23.364;2023-10-13T08:19:11;30.60;;;14.50;;
28625;SDS011;18905;42.668;23.364;2023-10-13T08:21:40;32.33;;;14.02;;
28625;SDS011;18905;42.668;23.364;2023-10-13T08:24:14;30.83;;;14.13;;
28625;SDS011;18905;42.668;23.364;2023-10-13T08:26:40;30.40;;;15.02;;
28625;SDS011;18905;42.668;23.364;2023-10-13T08:29:24;20.88;;;11.82;;
28625;SDS011;18905;42.668;23.364;2023-10-13T08:31:55;34.58;;;14.82;;
28625;SDS011;18905;42.668;23.364;2023-10-13T08:34:39;33.10;;;14.80;;
28625;SDS011;18905;42.668;23.364;2023-10-13T09:24:12;28.50;;;12.73;;
28625;SDS011;18905;42.668;23.364;2023-10-13T09:27:00;30.17;;;13.20;;
28625;SDS011;18905;42.668;23.364;2023-10-13T09:29:31;27.98;;;14.30;;
28625;SDS011;18905;42.668;23.364;2023-10-13T09:32:10;31.00;;;13.38;;
28625;SDS011;18905;42.668;23.364;2023-10-13T09:35:15;30.55;;;14.60;;
28625;SDS011;18905;42.668;23.364;2023-10-13T09:37:44;39.72;;;14.82;;
28625;SDS011;18905;42.668;23.364;2023-10-13T09:40:16;32.20;;;13.32;;
28625;SDS011;18905;42.668;23.364;2023-10-13T09:43:00;35.60;;;13.50;;
28625;SDS011;18905;42.668;23.364;2023-10-13T09:45:32;38.65;;;14.18;;
28625;SDS011;18905;42.668;23.364;2023-10-13T09:48:02;37.45;;;13.52;;
28625;SDS011;18905;42.668;23.364;2023-10-13T09:50:37;33.00;;;13.38;;
28625;SDS011;18905;42.668;23.364;2023-10-13T09:53:09;28.33;;;11.80;;
28625;SDS011;18905;42.668;23.364;2023-10-13T09:55:43;28.73;;;12.38;;
28625;SDS011;18905;42.668;23.364;2023-10-13T09:58:33;29.77;;;10.23;;
28625;SDS011;18905;42.668;23.364;2023-10-13T10:01:02;45.35;;;25.65;;
28625;SDS011;18905;42.668;23.364;2023-10-13T10:03:44;27.58;;;11.40;;
28625;SDS011;18905;42.668;23.364;2023-10-13T10:06:23;26.38;;;10.95;;
28625;SDS011;18905;42.668;23.364;2023-10-13T10:09:04;22.25;;;11.32;;
28625;SDS011;18905;42.668;23.364;2023-10-13T10:17:53;26.27;;;10.90;;
28625;SDS011;18905;42.668;23.364;2023-10-13T10:20:27;19.00;;;9.05;;
28625;SDS011;18905;42.668;23.364;2023-10-13T10:23:07;23.70;;;9.93;;
28625;SDS011;18905;42.668;23.364;2023-10-13T10:25:37;33.28;;;9.82;;
28625;SDS011;18905;42.668;23.364;2023-10-13T10:28:06;23.70;;;8.73;;
28625;SDS011;18905;42.668;23.364;2023-10-13T10:30:38;19.90;;;8.90;;
28625;SDS011;18905;42.668;23.364;2023-10-13T10:33:04;23.67;;;7.90;;
28625;SDS011;18905;42.668;23.364;2023-10-13T10:35:38;21.75;;;8.48;;
28625;SDS011;18905;42.668;23.364;2023-10-13T10:40:55;23.30;;;7.65;;
28625;SDS011;18905;42.668;23.364;2023-10-13T10:46:11;20.02;;;7.03;;
28625;SDS011;18905;42.668;23.364;2023-10-13T10:48:37;19.80;;;7.72;;
28625;SDS011;18905;42.668;23.364;2023-10-13T10:51:13;14.85;;;5.43;;
28625;SDS011;18905;42.668;23.364;2023-10-13T10:53:40;16.23;;;5.80;;
28625;SDS011;18905;42.668;23.364;2023-10-13T10:56:10;13.50;;;5.60;;
28625;SDS011;18905;42.668;23.364;2023-10-13T10:58:49;23.65;;;7.10;;
28625;SDS011;18905;42.668;23.364;2023-10-13T11:01:20;13.73;;;5.25;;
28625;SDS011;18905;42.668;23.364;2023-10-13T11:04:00;8.45;;;4.13;;
28625;SDS011;18905;42.668;23.364;2023-10-13T11:06:34;11.43;;;4.75;;
28625;SDS011;18905;42.668;23.364;2023-10-13T11:09:07;21.55;;;5.47;;
28625;SDS011;18905;42.668;23.364;2023-10-13T11:11:44;14.07;;;5.38;;
28625;SDS011;18905;42.668;23.364;2023-10-13T11:14:20;16.85;;;5.32;;
28625;SDS011;18905;42.668;23.364;2023-10-13T11:16:50;10.80;;;4.82;;
28625;SDS011;18905;42.668;23.364;2023-10-13T11:19:18;15.27;;;5.20;;
28625;SDS011;18905;42.668;23.364;2023-10-13T11:22:09;16.15;;;4.88;;
28625;SDS011;18905;42.668;23.364;2023-10-13T11:24:54;8.35;;;3.95;;
28625;SDS011;18905;42.668;23.364;2023-10-13T11:27:27;9.65;;;4.13;;
28625;SDS011;18905;42.668;23.364;2023-10-13T11:30:09;12.20;;;3.80;;
28625;SDS011;18905;42.668;23.364;2023-10-13T11:32:38;15.18;;;4.72;;
28625;SDS011;18905;42.668;23.364;2023-10-13T11:35:07;8.15;;;4.03;;
28625;SDS011;18905;42.668;23.364;2023-10-13T11:37:50;14.18;;;3.92;;
28625;SDS011;18905;42.668;23.364;2023-10-13T11:40:29;13.73;;;2.92;;
28625;SDS011;18905;42.668;23.364;2023-10-13T11:43:30;11.05;;;3.25;;
28625;SDS011;18905;42.668;23.364;2023-10-13T11:46:25;11.48;;;3.20;;
28625;SDS011;18905;42.668;23.364;2023-10-13T11:49:01;12.85;;;3.13;;
28625;SDS011;18905;42.668;23.364;2023-10-13T11:51:42;6.78;;;3.45;;
28625;SDS011;18905;42.668;23.364;2023-10-13T11:54:17;9.00;;;3.22;;
28625;SDS011;18905;42.668;23.364;2023-10-13T11:56:47;11.52;;;3.95;;
28625;SDS011;18905;42.668;23.364;2023-10-13T11:59:13;9.80;;;4.03;;
28625;SDS011;18905;42.668;23.364;2023-10-13T12:01:49;15.90;;;4.32;;
28625;SDS011;18905;42.668;23.364;2023-10-13T12:04:33;8.70;;;3.35;;
28625;SDS011;18905;42.668;23.364;2023-10-13T12:07:14;6.75;;;3.65;;
28625;SDS011;18905;42.668;23.364;2023-10-13T12:09:43;24.92;;;4.88;;
28625;SDS011;18905;42.668;23.364;2023-10-13T12:12:28;7.20;;;3.80;;
28625;SDS011;18905;42.668;23.364;2023-10-13T12:14:55;6.18;;;3.28;;
28625;SDS011;18905;42.668;23.364;2023-10-13T12:17:21;8.00;;;3.53;;
28625;SDS011;18905;42.668;23.364;2023-10-13T12:19:56;15.18;;;4.25;;
28625;SDS011;18905;42.668;23.364;2023-10-13T12:22:22;7.60;;;3.78;;
28625;SDS011;18905;42.668;23.364;2023-10-13T12:24:56;9.43;;;3.78;;
28625;SDS011;18905;42.668;23.364;2023-10-13T12:27:22;7.70;;;3.92;;
28625;SDS011;18905;42.668;23.364;2023-10-13T12:30:00;11.32;;;3.08;;
28625;SDS011;18905;42.668;23.364;2023-10-13T12:32:32;12.48;;;3.30;;
28625;SDS011;18905;42.668;23.364;2023-10-13T12:34:59;10.05;;;3.63;;
28625;SDS011;18905;42.668;23.364;2023-10-13T12:37:41;6.90;;;3.17;;
28625;SDS011;18905;42.668;23.364;2023-10-13T12:40:12;11.65;;;3.53;;
28625;SDS011;18905;42.668;23.364;2023-10-13T12:43:02;16.25;;;4.20;;
28625;SDS011;18905;42.668;23.364;2023-10-13T12:45:48;8.23;;;4.25;;
28625;SDS011;18905;42.668;23.364;2023-10-13T12:48:34;11.60;;;4.50;;
28625;SDS011;18905;42.668;23.364;2023-10-13T12:51:19;16.77;;;3.40;;
28625;SDS011;18905;42.668;23.364;2023-10-13T12:53:53;17.35;;;3.53;;
28625;SDS011;18905;42.668;23.364;2023-10-13T12:56:20;7.40;;;3.33;;
28625;SDS011;18905;42.668;23.364;2023-10-13T12:58:53;16.45;;;3.55;;
28625;SDS011;18905;42.668;23.364;2023-10-13T13:01:19;8.45;;;3.47;;
28625;SDS011;18905;42.668;23.364;2023-10-13T13:03:49;13.20;;;3.25;;
28625;SDS011;18905;42.668;23.364;2023-10-13T13:06:16;8.80;;;3.80;;
28625;SDS011;18905;42.668;23.364;2023-10-13T13:08:43;9.77;;;3.75;;
28625;SDS011;18905;42.668;23.364;2023-10-13T13:11:09;18.58;;;10.32;;
28625;SDS011;18905;42.668;23.364;2023-10-13T13:13:36;10.73;;;4.88;;
28625;SDS011;18905;42.668;23.364;2023-10-13T13:16:01;10.38;;;4.22;;
28625;SDS011;18905;42.668;23.364;2023-10-13T13:18:28;11.50;;;3.72;;
28625;SDS011;18905;42.668;23.364;2023-10-13T13:20:54;9.68;;;3.10;;
28625;SDS011;18905;42.668;23.364;2023-10-13T13:23:20;8.88;;;3.20;;
28625;SDS011;18905;42.668;23.364;2023-10-13T13:25:47;9.60;;;3.10;;
28625;SDS011;18905;42.668;23.364;2023-10-13T13:28:13;8.60;;;3.45;;
28625;SDS011;18905;42.668;23.364;2023-10-13T13:30:43;7.93;;;3.13;;
28625;SDS011;18905;42.668;23.364;2023-10-13T13:33:09;12.20;;;3.53;;
28625;SDS011;18905;42.668;23.364;2023-10-13T13:35:41;8.48;;;3.53;;
28625;SDS011;18905;42.668;23.364;2023-10-13T13:38:09;8.23;;;3.25;;
28625;SDS011;18905;42.668;23.364;2023-10-13T13:40:36;9.50;;;3.35;;
28625;SDS011;18905;42.668;23.364;2023-10-13T13:43:03;9.88;;;3.70;;
28625;SDS011;18905;42.668;23.364;2023-10-13T13:45:28;13.60;;;3.70;;
28625;SDS011;18905;42.668;23.364;2023-10-13T13:47:54;13.10;;;3.92;;
28625;SDS011;18905;42.668;23.364;2023-10-13T13:50:23;11.35;;;4.60;;
28625;SDS011;18905;42.668;23.364;2023-10-13T13:52:53;11.00;;;4.10;;
28625;SDS011;18905;42.668;23.364;2023-10-13T13:55:21;14.95;;;3.53;;
28625;SDS011;18905;42.668;23.364;2023-10-13T13:57:48;13.40;;;3.97;;
28625;SDS011;18905;42.668;23.364;2023-10-13T14:00:15;9.75;;;3.45;;
28625;SDS011;18905;42.668;23.364;2023-10-13T14:03:03;9.25;;;3.85;;
28625;SDS011;18905;42.668;23.364;2023-10-13T14:05:30;16.90;;;3.90;;
28625;SDS011;18905;42.668;23.364;2023-10-13T14:07:55;11.27;;;3.70;;
28625;SDS011;18905;42.668;23.364;2023-10-13T14:10:21;21.65;;;4.53;;
28625;SDS011;18905;42.668;23.364;2023-10-13T14:13:18;12.65;;;3.33;;
28625;SDS011;18905;42.668;23.364;2023-10-13T14:15:47;17.70;;;3.95;;
28625;SDS011;18905;42.668;23.364;2023-10-13T14:18:13;11.65;;;3.95;;
28625;SDS011;18905;42.668;23.364;2023-10-13T14:20:41;19.48;;;4.32;;
28625;SDS011;18905;42.668;23.364;2023-10-13T14:23:07;13.65;;;3.60;;
28625;SDS011;18905;42.668;23.364;2023-10-13T14:25:36;12.20;;;4.20;;
28625;SDS011;18905;42.668;23.364;2023-10-13T14:28:04;10.70;;;3.80;;
28625;SDS011;18905;42.668;23.364;2023-10-13T14:30:30;11.80;;;4.35;;
28625;SDS011;18905;42.668;23.364;2023-10-13T14:32:56;7.57;;;3.78;;
28625;SDS011;18905;42.668;23.364;2023-10-13T14:35:23;14.05;;;3.92;;
28625;SDS011;18905;42.668;23.364;2023-10-13T14:37:51;13.85;;;4.10;;
28625;SDS011;18905;42.668;23.364;2023-10-13T14:40:16;8.80;;;4.07;;
28625;SDS011;18905;42.668;23.364;2023-10-13T14:42:46;13.13;;;3.60;;
28625;SDS011;18905;42.668;23.364;2023-10-13T14:45:14;14.05;;;4.00;;
28625;SDS011;18905;42.668;23.364;2023-10-13T14:47:44;12.10;;;4.72;;
28625;SDS011;18905;42.668;23.364;2023-10-13T14:50:12;12.25;;;4.32;;
28625;SDS011;18905;42.668;23.364;2023-10-13T14:52:47;16.67;;;4.80;;
28625;SDS011;18905;42.668;23.364;2023-10-13T14:55:13;12.80;;;4.38;;
28625;SDS011;18905;42.668;23.364;2023-10-13T14:57:47;12.10;;;4.15;;
28625;SDS011;18905;42.668;23.364;2023-10-13T15:00:14;13.70;;;3.88;;
28625;SDS011;18905;42.668;23.364;2023-10-13T15:02:49;16.17;;;4.00;;
28625;SDS011;18905;42.668;23.364;2023-10-13T15:05:14;9.57;;;4.00;;
28625;SDS011;18905;42.668;23.364;2023-10-13T15:07:42;12.13;;;4.28;;
28625;SDS011;18905;42.668;23.364;2023-10-13T15:10:14;11.13;;;4.03;;
28625;SDS011;18905;42.668;23.364;2023-10-13T15:12:43;16.35;;;4.00;;
28625;SDS011;18905;42.668;23.364;2023-10-13T15:15:12;17.55;;;5.43;;
28625;SDS011;18905;42.668;23.364;2023-10-13T15:17:44;13.15;;;4.57;;
28625;SDS011;18905;42.668;23.364;2023-10-13T15:20:10;15.73;;;4.78;;
28625;SDS011;18905;42.668;23.364;2023-10-13T15:22:41;14.63;;;4.47;;
28625;SDS011;18905;42.668;23.364;2023-10-13T15:25:07;11.35;;;4.40;;
28625;SDS011;18905;42.668;23.364;2023-10-13T15:27:46;25.92;;;4.95;;
28625;SDS011;18905;42.668;23.364;2023-10-13T15:30:27;20.52;;;4.75;;
28625;SDS011;18905;42.668;23.364;2023-10-13T15:33:01;20.42;;;4.22;;
28625;SDS011;18905;42.668;23.364;2023-10-13T15:35:30;27.48;;;5.35;;
28625;SDS011;18905;42.668;23.364;2023-10-13T15:37:55;18.27;;;4.05;;
28625;SDS011;18905;42.668;23.364;2023-10-13T15:40:22;14.38;;;5.05;;
28625;SDS011;18905;42.668;23.364;2023-10-13T15:42:49;15.23;;;4.97;;
28625;SDS011;18905;42.668;23.364;2023-10-13T15:45:14;15.38;;;4.32;;
28625;SDS011;18905;42.668;23.364;2023-10-13T15:47:42;18.08;;;4.45;;
28625;SDS011;18905;42.668;23.364;2023-10-13T15:50:12;19.63;;;5.43;;
28625;SDS011;18905;42.668;23.364;2023-10-13T15:52:41;18.50;;;4.97;;
28625;SDS011;18905;42.668;23.364;2023-10-13T15:55:14;20.40;;;5.60;;
28625;SDS011;18905;42.668;23.364;2023-10-13T15:57:42;25.00;;;6.35;;
28625;SDS011;18905;42.668;23.364;2023-10-13T16:00:09;19.90;;;6.40;;
28625;SDS011;18905;42.668;23.364;2023-10-13T16:02:54;17.88;;;5.40;;
28625;SDS011;18905;42.668;23.364;2023-10-13T16:05:22;27.17;;;5.88;;
28625;SDS011;18905;42.668;23.364;2023-10-13T16:07:50;19.73;;;5.47;;
28625;SDS011;18905;42.668;23.364;2023-10-13T16:10:16;20.55;;;6.38;;
28625;SDS011;18905;42.668;23.364;2023-10-13T16:12:42;27.13;;;7.20;;
28625;SDS011;18905;42.668;23.364;2023-10-13T16:15:10;33.25;;;7.97;;
28625;SDS011;18905;42.668;23.364;2023-10-13T16:17:39;22.30;;;7.88;;
28625;SDS011;18905;42.668;23.364;2023-10-13T16:20:06;27.02;;;7.88;;
28625;SDS011;18905;42.668;23.364;2023-10-13T16:22:41;29.63;;;9.50;;
28625;SDS011;18905;42.668;23.364;2023-10-13T16:25:10;28.25;;;10.25;;
28625;SDS011;18905;42.668;23.364;2023-10-13T16:27:37;27.52;;;7.78;;